Time;durP1;ratioP1;P1;durP2;ratioP2;P2;SDS_P1;SDS_P2;PMS_P1;PMS_P2;Temp;Humidity;BMP_temperature;BMP_pressure;BME280_temperature;BME280_humidity;BME280_pressure;Samples;Min_cycle;Max_cycle;Signal;HPM_P1;HPM_P2
2021/01/02 00:00:22;;;;;;;4.97;3.90;;;2.30;96.50;;;;;;6338889;27;20170;-78
2021/01/02 00:03:48;;;;;;;5.35;3.78;;;1.90;96.20;;;;;;6355676;27;20023;-79
2021/01/02 00:06:57;;;;;;;4.65;4.10;;;2.30;96.40;;;;;;6374061;27;20058;-77
2021/01/02 00:10:00;;;;;;;5.15;4.20;;;2.60;96.50;;;;;;6355817;27;20022;-78
2021/01/02 00:13:04;;;;;;;5.18;4.15;;;3.10;96.50;;;;;;6373719;27;20402;-77
2021/01/02 00:16:07;;;;;;;4.93;3.97;;;2.00;99.90;;;;;;6373498;27;20027;-77
2021/01/02 00:19:38;;;;;;;5.32;4.18;;;1.90;94.20;;;;;;6373776;27;20230;-77
2021/01/02 00:22:52;;;;;;;4.60;3.80;;;1.90;99.90;;;;;;6373922;27;20024;-77
2021/01/02 00:25:59;;;;;;;5.15;4.57;;;2.50;96.30;;;;;;6373596;27;20054;-77
2021/01/02 00:29:02;;;;;;;4.88;4.13;;;2.90;96.30;;;;;;6337888;27;20468;-79
2021/01/02 00:32:12;;;;;;;4.65;3.90;;;2.40;96.20;;;;;;6338710;27;20019;-77
2021/01/02 00:35:17;;;;;;;6.20;4.18;;;1.90;99.90;;;;;;6354858;27;20038;-77
2021/01/02 00:38:18;;;;;;;4.57;3.95;;;1.80;99.90;;;;;;6373477;27;20031;-77
2021/01/02 00:41:18;;;;;;;5.78;4.40;;;2.60;99.90;;;;;;6338115;27;20020;-78
2021/01/02 00:44:19;;;;;;;5.30;4.10;;;2.10;99.90;;;;;;6338004;27;20058;-77
2021/01/02 00:47:20;;;;;;;6.38;4.65;;;2.30;96.40;;;;;;6354692;27;20038;-76
2021/01/02 00:50:24;;;;;;;4.82;4.18;;;3.10;96.70;;;;;;6355045;27;20087;-77
2021/01/02 00:53:38;;;;;;;5.63;4.53;;;2.00;94.90;;;;;;6355188;27;20023;-78
2021/01/02 00:56:46;;;;;;;5.13;3.72;;;2.00;95.10;;;;;;6354641;27;20480;-77
2021/01/02 01:00:06;;;;;;;5.78;4.10;;;2.80;96.20;;;;;;6337953;27;20023;-77
2021/01/02 01:03:19;;;;;;;5.35;4.20;;;2.00;95.60;;;;;;6372629;27;20479;-77
2021/01/02 01:06:21;;;;;;;5.45;4.65;;;2.00;94.80;;;;;;6373053;27;20027;-78
2021/01/02 01:09:24;;;;;;;5.20;4.38;;;2.60;96.10;;;;;;6372859;27;20346;-78
2021/01/02 01:12:27;;;;;;;5.22;4.13;;;2.10;96.20;;;;;;6372725;27;20082;-77
2021/01/02 01:15:28;;;;;;;;;;;3.40;96.50;;;;;;6373358;28;20075;-79
2021/01/02 01:18:38;;;;;;;5.70;4.40;;;3.10;96.40;;;;;;6372834;28;20465;-78
2021/01/02 01:21:40;;;;;;;5.15;4.40;;;1.90;94.60;;;;;;6355356;28;20030;-77
2021/01/02 01:24:50;;;;;;;5.97;3.90;;;2.30;96.10;;;;;;6354450;28;20098;-78
2021/01/02 01:27:54;;;;;;;5.43;4.82;;;3.20;96.40;;;;;;6372629;28;20280;-78
2021/01/02 01:30:55;;;;;;;5.65;4.40;;;2.00;99.90;;;;;;6372386;27;20027;-77
2021/01/02 01:33:58;;;;;;;5.78;4.25;;;1.80;99.90;;;;;;6337478;28;20023;-78
2021/01/02 01:36:59;;;;;;;6.70;4.63;;;;;;;;;;6372715;28;20031;-77
2021/01/02 01:40:00;;;;;;;5.30;4.40;;;1.80;99.90;;;;;;6354358;28;20068;-78
2021/01/02 01:43:05;;;;;;;6.22;4.35;;;1.40;96.90;;;;;;6354081;28;20019;-77
2021/01/02 01:46:12;;;;;;;6.05;4.88;;;3.20;96.30;;;;;;6372081;27;20019;-77
2021/01/02 01:49:13;;;;;;;5.07;4.55;;;2.50;96.10;;;;;;6354232;28;20042;-77
2021/01/02 01:52:24;;;;;;;5.53;4.40;;;3.00;96.20;;;;;;6336890;28;20027;-77
2021/01/02 01:55:29;;;;;;;7.07;5.10;;;2.40;96.00;;;;;;6321944;28;20031;-77
2021/01/02 01:58:53;;;;;;;9.45;5.20;;;2.30;99.90;;;;;;6371949;28;20015;-77
2021/01/02 02:01:55;;;;;;;6.72;5.45;;;2.10;93.50;;;;;;6371880;28;20811;-77
2021/01/02 02:05:04;;;;;;;9.32;6.43;;;3.10;95.20;;;;;;6372371;28;20077;-78
2021/01/02 02:08:10;;;;;;;8.45;7.07;;;2.10;94.60;;;;;;6372061;27;20019;-77
2021/01/02 02:11:33;;;;;;;9.25;6.13;;;2.00;99.90;;;;;;6371899;27;20026;-78
2021/01/02 02:14:37;;;;;;;9.15;6.30;;;2.10;94.00;;;;;;6354577;27;20090;-78
2021/01/02 02:17:43;;;;;;;8.05;5.75;;;2.00;94.90;;;;;;6376750;27;20039;-78
2021/01/02 02:20:49;;;;;;;6.95;5.43;;;1.90;99.90;;;;;;6376839;27;20022;-76
2021/01/02 02:23:59;;;;;;;6.40;5.47;;;2.10;99.90;;;;;;6376914;27;20473;-77
2021/01/02 02:27:00;;;;;;;6.32;4.68;;;2.20;99.90;;;;;;6358493;27;20016;-77
2021/01/02 02:30:10;;;;;;;6.60;5.22;;;1.90;99.90;;;;;;6358131;27;20022;-76
2021/01/02 02:33:11;;;;;;;6.95;5.30;;;2.10;95.30;;;;;;6376203;27;20581;-79
2021/01/02 02:36:11;;;;;;;8.98;5.70;;;3.20;96.50;;;;;;6357798;27;20035;-80
2021/01/02 02:39:13;;;;;;;7.65;5.45;;;2.60;96.40;;;;;;6357751;27;20019;-79
2021/01/02 02:42:14;;;;;;;7.30;5.30;;;3.30;96.70;;;;;;6376251;27;20027;-79
2021/01/02 02:45:14;;;;;;;7.45;5.60;;;3.10;96.70;;;;;;6357762;27;20445;-78
2021/01/02 02:48:16;;;;;;;7.55;5.78;;;2.10;96.40;;;;;;6376120;27;20023;-80
2021/01/02 02:51:17;;;;;;;5.47;4.88;;;;;;;;;;6375922;27;20019;-79
2021/01/02 02:54:17;;;;;;;7.13;5.47;;;2.10;95.00;;;;;;6357374;27;20052;-78
2021/01/02 02:57:18;;;;;;;6.43;5.03;;;3.60;97.00;;;;;;6340308;27;20049;-77
2021/01/02 03:00:19;;;;;;;6.72;5.75;;;3.40;97.00;;;;;;6339887;27;20051;-77
2021/01/02 03:03:20;;;;;;;6.28;5.25;;;2.10;96.50;;;;;;6375404;27;20023;-77
2021/01/02 03:06:22;;;;;;;8.65;5.50;;;2.00;96.80;;;;;;6375313;27;20041;-77
2021/01/02 03:09:22;;;;;;;6.03;5.07;;;3.10;97.00;;;;;;6375687;27;20440;-77
2021/01/02 03:12:23;;;;;;;6.60;5.30;;;2.70;96.90;;;;;;6356995;27;20023;-78
2021/01/02 03:15:26;;;;;;;6.30;5.03;;;2.90;97.30;;;;;;6375165;27;20467;-78
2021/01/02 03:18:26;;;;;;;7.15;5.10;;;3.20;97.00;;;;;;6375405;27;20023;-77
2021/01/02 03:21:27;;;;;;;6.05;4.78;;;2.30;96.70;;;;;;6375092;27;20031;-77
2021/01/02 03:24:27;;;;;;;7.00;4.93;;;2.90;96.90;;;;;;6375021;27;20456;-79
2021/01/02 03:27:28;;;;;;;6.78;4.90;;;3.00;96.80;;;;;;6374657;27;20030;-77
2021/01/02 03:30:29;;;;;;;6.57;5.30;;;2.20;96.70;;;;;;6374787;27;20027;-79
2021/01/02 03:33:30;;;;;;;6.10;4.85;;;2.10;99.90;;;;;;6375093;27;20240;-79
2021/01/02 03:36:30;;;;;;;5.45;4.85;;;1.90;99.90;;;;;;6374604;27;20035;-76
2021/01/02 03:39:31;;;;;;;6.20;4.72;;;1.90;99.90;;;;;;6374693;27;20015;-77
2021/01/02 03:42:36;;;;;;;6.85;4.75;;;1.90;99.90;;;;;;6374550;27;20049;-79
2021/01/02 03:45:36;;;;;;;5.60;5.00;;;2.00;99.90;;;;;;6374673;27;20369;-77
2021/01/02 03:48:37;;;;;;;6.50;4.95;;;;;;;;;;6374397;27;20034;-80
2021/01/02 03:51:38;;;;;;;5.85;4.90;;;2.10;99.90;;;;;;6374584;27;20016;-78
2021/01/02 03:54:39;;;;;;;5.60;4.78;;;;;;;;;;6374507;27;20027;-77
2021/01/02 03:57:40;;;;;;;6.75;5.40;;;2.10;94.80;;;;;;6374291;27;20071;-77
2021/01/02 04:00:40;;;;;;;8.55;4.68;;;3.20;96.70;;;;;;6374159;27;20493;-77
2021/01/02 04:03:41;;;;;;;7.72;5.28;;;2.40;96.50;;;;;;6373962;27;20015;-78
2021/01/02 04:06:41;;;;;;;6.60;4.95;;;3.20;96.80;;;;;;6374080;27;20453;-77
2021/01/02 04:09:42;;;;;;;7.05;5.03;;;2.80;96.50;;;;;;6373872;27;20027;-80
2021/01/02 04:12:43;;;;;;;6.43;4.97;;;2.90;96.50;;;;;;6373787;27;20019;-77
2021/01/02 04:15:43;;;;;;;7.10;4.93;;;2.80;96.60;;;;;;6373564;27;20027;-79
2021/01/02 04:18:44;;;;;;;6.65;5.05;;;2.40;96.40;;;;;;6373665;27;20320;-80
2021/01/02 04:21:45;;;;;;;6.20;5.40;;;2.90;96.70;;;;;;6373714;27;20019;-76
2021/01/02 04:24:46;;;;;;;6.78;5.40;;;2.60;96.70;;;;;;6373583;27;20015;-76
2021/01/02 04:27:47;;;;;;;5.75;5.25;;;3.30;96.90;;;;;;6373760;27;20028;-78
2021/01/02 04:30:47;;;;;;;6.00;4.90;;;2.90;96.80;;;;;;6373305;27;20056;-78
2021/01/02 04:33:48;;;;;;;5.75;5.03;;;2.30;96.80;;;;;;6373400;27;20778;-76
2021/01/02 04:36:49;;;;;;;6.80;5.20;;;2.60;96.90;;;;;;6354959;27;20464;-76
2021/01/02 04:39:50;;;;;;;6.75;5.40;;;3.50;97.30;;;;;;6372829;27;20023;-76
2021/01/02 04:42:50;;;;;;;6.07;5.07;;;2.80;96.90;;;;;;6373128;27;20468;-80
2021/01/02 04:45:53;;;;;;;8.13;6.90;;;3.10;97.00;;;;;;6355091;27;20058;-80
2021/01/02 04:48:53;;;;;;;10.15;8.40;;;2.40;96.90;;;;;;6355019;27;20027;-78
2021/01/02 04:52:00;;;;;;;12.43;9.70;;;2.40;96.90;;;;;;6355174;27;20027;-76
2021/01/02 04:55:03;;;;;;;14.30;11.25;;;2.50;97.00;;;;;;6373027;27;20128;-76
2021/01/02 04:58:05;;;;;;;13.90;9.73;;;2.00;96.80;;;;;;6373287;27;20016;-80
2021/01/02 05:01:10;;;;;;;13.98;9.25;;;3.40;97.30;;;;;;6354602;27;20152;-76
2021/01/02 05:04:10;;;;;;;14.18;9.73;;;2.00;95.40;;;;;;6354869;27;20023;-76
2021/01/02 05:07:11;;;;;;;10.88;8.48;;;2.60;97.00;;;;;;6373247;27;20023;-76
2021/01/02 05:10:12;;;;;;;11.38;8.68;;;3.30;97.30;;;;;;6372625;27;20064;-78
2021/01/02 05:13:12;;;;;;;11.45;8.20;;;2.40;97.00;;;;;;6372725;28;20028;-76
2021/01/02 05:16:18;;;;;;;11.85;8.93;;;2.80;97.20;;;;;;6372676;28;20060;-78
2021/01/02 05:19:19;;;;;;;10.95;8.27;;;2.20;97.10;;;;;;6372770;28;20058;-79
2021/01/02 05:22:28;;;;;;;11.35;8.55;;;2.50;97.20;;;;;;6372613;27;20027;-78
2021/01/02 05:25:29;;;;;;;13.77;9.80;;;2.90;97.50;;;;;;6372637;28;20075;-79
2021/01/02 05:28:30;;;;;;;14.45;9.75;;;2.00;99.90;;;;;;6372761;28;20059;-79
2021/01/02 05:31:30;;;;;;;13.73;10.30;;;1.80;99.90;;;;;;6372546;28;20562;-76
2021/01/02 05:34:32;;;;;;;19.83;12.38;;;2.10;99.90;;;;;;6354372;28;20015;-79
2021/01/02 05:37:33;;;;;;;16.80;12.95;;;1.90;99.90;;;;;;6372546;27;20033;-79
2021/01/02 05:40:39;;;;;;;16.20;11.77;;;1.90;99.90;;;;;;6354575;28;20094;-78
2021/01/02 05:43:39;;;;;;;16.42;11.98;;;1.70;99.90;;;;;;6372735;28;20726;-80
2021/01/02 05:46:47;;;;;;;16.05;11.00;;;1.90;99.90;;;;;;6354352;28;20027;-80
2021/01/02 05:49:49;;;;;;;15.73;10.05;;;;;;;;;;6373091;27;20030;-78
2021/01/02 05:52:50;;;;;;;16.27;11.13;;;1.80;99.90;;;;;;6377403;27;20019;-78
2021/01/02 05:56:01;;;;;;;16.35;11.25;;;1.70;99.90;;;;;;6359077;27;20038;-78
2021/01/02 05:59:01;;;;;;;14.43;11.13;;;1.50;99.90;;;;;;6377261;27;20357;-78
2021/01/02 06:02:29;;;;;;;17.48;12.32;;;2.00;99.90;;;;;;6377500;27;20118;-78
2021/01/02 06:05:30;;;;;;;16.25;11.13;;;1.70;99.90;;;;;;6377540;27;20027;-79
2021/01/02 06:08:41;;;;;;;17.13;12.70;;;3.30;99.90;;;;;;6377053;27;20031;-79
2021/01/02 06:11:42;;;;;;;18.33;12.80;;;;;;;;;;6377273;27;20516;-76
2021/01/02 06:14:42;;;;;;;17.55;12.38;;;1.70;96.20;;;;;;6358655;27;20024;-78
2021/01/02 06:17:46;;;;;;;16.98;12.40;;;2.40;97.90;;;;;;6341628;27;20042;-79
2021/01/02 06:20:47;;;;;;;17.10;11.57;;;1.70;97.80;;;;;;6376841;27;20031;-76
2021/01/02 06:23:48;;;;;;;18.02;12.60;;;2.90;98.10;;;;;;6376758;27;20023;-76
2021/01/02 06:26:50;;;;;;;16.42;12.55;;;3.00;98.10;;;;;;6376921;27;20023;-79
2021/01/02 06:29:51;;;;;;;17.08;12.50;;;2.70;97.90;;;;;;6376592;27;20023;-78
2021/01/02 06:32:52;;;;;;;15.80;10.73;;;3.00;98.10;;;;;;6358457;27;20111;-77
2021/01/02 06:35:53;;;;;;;15.88;11.60;;;2.20;97.90;;;;;;6376554;27;20035;-76
2021/01/02 06:39:19;;;;;;;15.73;11.52;;;2.50;98.00;;;;;;6376620;27;20074;-76
2021/01/02 06:42:31;;;;;;;16.92;12.45;;;1.90;96.60;;;;;;6376708;27;20015;-79
2021/01/02 06:45:35;;;;;;;18.75;12.32;;;2.50;99.90;;;;;;6376518;27;20058;-76
2021/01/02 06:48:36;;;;;;;16.50;12.63;;;2.10;97.80;;;;;;6376508;27;20015;-78
2021/01/02 06:51:37;;;;;;;12.35;9.70;;;3.20;97.90;;;;;;6376095;27;20464;-80
2021/01/02 06:54:39;;;;;;;11.85;8.90;;;2.50;97.30;;;;;;6376028;27;20024;-76
2021/01/02 06:57:39;;;;;;;13.80;10.05;;;2.00;97.30;;;;;;6376349;27;20039;-77
2021/01/02 07:00:40;;;;;;;12.88;9.82;;;1.90;99.90;;;;;;6375154;27;20112;-79
2021/01/02 07:03:47;;;;;;;9.18;8.02;;;1.70;97.40;;;;;;6375882;27;20019;-78
2021/01/02 07:06:47;;;;;;;11.02;7.90;;;1.90;96.30;;;;;;6376242;27;20035;-78
2021/01/02 07:09:48;;;;;;;12.55;8.82;;;3.40;97.50;;;;;;6375865;27;20031;-78
2021/01/02 07:12:48;;;;;;;12.45;8.82;;;3.60;97.30;;;;;;6375492;27;20083;-76
2021/01/02 07:15:49;;;;;;;13.32;9.50;;;2.60;96.90;;;;;;6375579;27;20038;-79
2021/01/02 07:18:49;;;;;;;11.40;8.35;;;3.10;96.40;;;;;;6375452;27;20027;-78
2021/01/02 07:22:11;;;;;;;11.38;7.95;;;2.50;96.20;;;;;;6375538;27;20102;-79
2021/01/02 07:25:14;;;;;;;9.80;7.50;;;2.00;95.10;;;;;;6375658;27;20015;-79
2021/01/02 07:28:15;;;;;;;11.23;8.02;;;2.70;96.30;;;;;;6340245;27;20442;-79
2021/01/02 07:31:16;;;;;;;9.15;7.00;;;3.10;96.60;;;;;;6375446;27;20079;-78
2021/01/02 07:34:17;;;;;;;11.00;8.13;;;2.90;96.70;;;;;;6356714;27;20022;-78
2021/01/02 07:37:20;;;;;;;10.23;7.35;;;3.30;96.70;;;;;;6374824;27;20061;-78
2021/01/02 07:40:20;;;;;;;9.65;7.22;;;2.00;99.90;;;;;;6375055;27;20110;-78
2021/01/02 07:43:21;;;;;;;9.10;6.93;;;2.00;95.90;;;;;;6374879;27;20027;-79
2021/01/02 07:46:22;;;;;;;8.88;7.28;;;2.60;96.00;;;;;;6374657;27;20031;-78
2021/01/02 07:49:22;;;;;;;10.32;7.57;;;3.00;96.20;;;;;;6375182;27;20026;-78
2021/01/02 07:52:23;;;;;;;16.30;10.95;;;3.20;95.90;;;;;;6374907;27;20079;-78
2021/01/02 07:55:27;;;;;;;14.25;10.68;;;3.10;96.20;;;;;;6356187;27;20030;-78
2021/01/02 07:58:27;;;;;;;13.00;9.68;;;3.00;96.20;;;;;;6374706;27;20023;-78
2021/01/02 08:01:28;;;;;;;10.65;7.50;;;2.60;95.40;;;;;;6374607;27;20065;-80
2021/01/02 08:04:29;;;;;;;10.38;7.38;;;3.10;93.70;;;;;;6338923;27;20055;-78
2021/01/02 08:07:29;;;;;;;10.07;6.97;;;3.00;93.00;;;;;;6374277;27;20102;-79
2021/01/02 08:10:31;;;;;;;9.25;7.18;;;;;;;;;;6374423;27;20046;-78
2021/01/02 08:13:32;;;;;;;8.90;6.55;;;2.30;90.00;;;;;;6373161;27;20022;-77
2021/01/02 08:16:33;;;;;;;9.18;6.88;;;3.10;91.40;;;;;;6338890;27;20023;-79
2021/01/02 08:19:37;;;;;;;11.23;7.60;;;3.10;92.10;;;;;;6355617;27;20023;-80
2021/01/02 08:22:38;;;;;;;10.68;8.07;;;3.30;92.30;;;;;;6374208;27;20027;-80
2021/01/02 08:25:39;;;;;;;12.00;8.15;;;2.70;91.90;;;;;;6374053;27;20076;-79
2021/01/02 08:28:39;;;;;;;11.18;7.53;;;2.30;99.30;;;;;;6355539;27;20076;-78
2021/01/02 08:32:00;;;;;;;19.25;9.93;;;2.20;99.80;;;;;;6338779;27;20356;-78
2021/01/02 08:35:01;;;;;;;15.70;10.05;;;2.50;90.90;;;;;;6355984;27;20429;-78
2021/01/02 08:38:08;;;;;;;12.13;8.48;;;2.40;91.50;;;;;;6373685;27;20031;-78
2021/01/02 08:41:18;;;;;;;14.65;9.30;;;2.40;90.20;;;;;;6373450;27;20091;-78
2021/01/02 08:44:27;;;;;;;11.07;8.48;;;3.00;91.40;;;;;;6373397;27;20079;-78
2021/01/02 08:47:27;;;;;;;9.98;7.38;;;2.50;90.00;;;;;;6373390;27;20023;-78
2021/01/02 08:50:28;;;;;;;35.92;23.10;;;3.60;91.60;;;;;;6338187;27;20442;-78
2021/01/02 08:53:31;;;;;;;32.25;24.67;;;2.60;91.00;;;;;;6373222;27;20023;-80
2021/01/02 08:56:32;;;;;;;13.73;12.32;;;3.70;91.00;;;;;;6373264;27;20027;-78
2021/01/02 08:59:33;;;;;;;11.27;7.60;;;2.50;97.50;;;;;;6373377;27;20376;-78
2021/01/02 09:02:34;;;;;;;9.48;7.45;;;2.70;99.90;;;;;;6373078;27;20047;-78
2021/01/02 09:05:35;;;;;;;8.68;7.57;;;2.70;99.90;;;;;;6337895;28;20033;-78
2021/01/02 09:08:36;;;;;;;10.60;7.45;;;;;;;;;;6373031;27;20106;-78
2021/01/02 09:11:49;;;;;;;14.38;10.85;;;2.60;99.90;;;;;;6372931;27;20064;-79
2021/01/02 09:14:50;;;;;;;9.88;7.35;;;2.60;99.90;;;;;;6338543;28;20027;-78
2021/01/02 09:17:51;;;;;;;9.25;6.80;;;2.80;99.90;;;;;;6354591;28;20489;-79
2021/01/02 09:20:51;;;;;;;9.63;6.78;;;2.60;99.90;;;;;;6354709;28;20437;-80
2021/01/02 09:23:53;;;;;;;10.38;7.20;;;2.50;97.50;;;;;;6355132;27;20011;-78
2021/01/02 09:26:53;;;;;;;9.93;6.93;;;3.10;89.80;;;;;;6343391;27;20030;-80
2021/01/02 09:29:54;;;;;;;8.98;7.07;;;3.10;89.60;;;;;;6378205;27;20023;-79
2021/01/02 09:32:55;;;;;;;8.10;6.50;;;2.70;89.50;;;;;;6377897;27;20354;-78
2021/01/02 09:35:55;;;;;;;9.13;7.20;;;3.90;90.10;;;;;;6377818;27;20030;-77
2021/01/02 09:38:56;;;;;;;9.98;6.78;;;3.70;90.00;;;;;;6377870;27;20031;-77
2021/01/02 09:41:56;;;;;;;8.93;7.15;;;3.20;88.80;;;;;;6377907;27;20098;-78
2021/01/02 09:44:57;;;;;;;9.77;7.50;;;3.60;87.80;;;;;;6377621;27;20046;-79
2021/01/02 09:47:57;;;;;;;13.23;8.75;;;3.50;89.30;;;;;;6377616;27;20032;-77
2021/01/02 09:50:58;;;;;;;13.15;9.10;;;4.10;87.90;;;;;;6377562;27;20018;-79
2021/01/02 09:53:59;;;;;;;14.48;10.38;;;3.50;87.50;;;;;;6377473;27;20023;-78
2021/01/02 09:56:59;;;;;;;10.63;8.25;;;4.10;87.40;;;;;;6377678;27;20038;-79
2021/01/02 10:00:00;;;;;;;15.80;12.25;;;3.00;94.30;;;;;;6376942;27;20023;-78
2021/01/02 10:03:01;;;;;;;12.50;11.20;;;3.00;86.40;;;;;;6377566;27;20031;-80
2021/01/02 10:06:03;;;;;;;9.73;7.40;;;4.20;87.00;;;;;;6377389;27;20023;-78
2021/01/02 10:09:04;;;;;;;9.75;7.40;;;3.00;85.50;;;;;;6377127;27;20509;-78
2021/01/02 10:12:05;;;;;;;8.25;6.65;;;3.00;85.60;;;;;;6376961;27;20027;-78
2021/01/02 10:15:06;;;;;;;8.23;5.82;;;3.00;84.40;;;;;;6377180;27;20051;-78
2021/01/02 10:18:06;;;;;;;20.27;13.68;;;3.10;85.30;;;;;;6376844;27;20031;-78
2021/01/02 10:21:14;;;;;;;22.15;14.82;;;3.50;86.70;;;;;;6377177;27;20023;-78
2021/01/02 10:24:14;;;;;;;6.85;5.57;;;3.10;95.80;;;;;;6376893;27;20023;-79
2021/01/02 10:27:15;;;;;;;8.15;6.38;;;3.50;86.10;;;;;;6376797;27;20030;-79
2021/01/02 10:30:16;;;;;;;21.27;11.05;;;3.40;86.50;;;;;;6376766;27;20023;-78
2021/01/02 10:33:17;;;;;;;17.88;16.00;;;3.10;85.10;;;;;;6376832;27;20064;-78
2021/01/02 10:36:17;;;;;;;16.25;11.57;;;3.40;86.40;;;;;;6375450;27;20023;-78
2021/01/02 10:39:18;;;;;;;18.50;13.07;;;3.70;85.80;;;;;;6376460;27;20106;-77
2021/01/02 10:42:45;;;;;;;10.95;8.45;;;4.10;86.00;;;;;;6358396;27;20015;-78
2021/01/02 10:45:46;;;;;;;8.73;6.22;;;3.20;85.00;;;;;;6371689;27;20533;-78
2021/01/02 10:48:47;;;;;;;11.65;7.25;;;2.90;84.00;;;;;;6376566;27;20020;-78
2021/01/02 10:51:47;;;;;;;18.88;10.63;;;3.90;86.30;;;;;;6376090;27;20342;-78
2021/01/02 10:54:48;;;;;;;12.32;9.70;;;3.50;86.20;;;;;;6358094;27;20114;-80
2021/01/02 10:57:49;;;;;;;12.10;9.88;;;3.40;86.30;;;;;;6375910;27;20437;-79
2021/01/02 11:01:13;;;;;;;9.25;6.30;;;4.00;86.00;;;;;;6376157;27;20047;-79
2021/01/02 11:04:15;;;;;;;12.57;9.23;;;3.00;99.90;;;;;;6365151;27;20068;-77
2021/01/02 11:07:15;;;;;;;11.20;9.55;;;3.60;84.40;;;;;;6376337;27;20027;-78
2021/01/02 11:10:16;;;;;;;9.43;6.22;;;3.10;99.90;;;;;;6375905;27;20035;-78
2021/01/02 11:13:17;;;;;;;8.32;6.65;;;3.00;99.90;;;;;;6375897;27;20023;-78
2021/01/02 11:16:18;;;;;;;10.95;6.85;;;;;;;;;;6375361;27;20031;-78
2021/01/02 11:19:23;;;;;;;7.57;5.30;;;2.90;92.60;;;;;;6377312;27;20019;-78
2021/01/02 11:22:23;;;;;;;8.63;6.60;;;2.50;81.40;;;;;;6375604;27;20429;-80
2021/01/02 11:25:24;;;;;;;6.88;5.47;;;4.00;85.90;;;;;;6375665;27;20029;-78
2021/01/02 11:28:24;;;;;;;9.02;7.18;;;3.30;84.20;;;;;;6375230;27;20023;-77
2021/01/02 11:31:33;;;;;;;7.43;5.80;;;3.90;85.50;;;;;;6375417;27;20055;-78
2021/01/02 11:34:33;;;;;;;7.45;4.70;;;2.80;81.50;;;;;;6375136;27;20358;-80
2021/01/02 11:37:34;;;;;;;8.05;5.60;;;3.20;84.80;;;;;;6374808;27;20031;-78
2021/01/02 11:40:35;;;;;;;9.00;5.38;;;2.60;95.50;;;;;;6375100;27;20019;-78
2021/01/02 11:43:35;;;;;;;7.00;5.82;;;3.70;85.60;;;;;;6375094;27;20096;-77
2021/01/02 11:46:38;;;;;;;7.65;5.57;;;2.70;86.40;;;;;;6374617;27;20019;-78
2021/01/02 11:49:39;;;;;;;8.63;5.95;;;4.00;84.50;;;;;;6374887;27;20361;-78
2021/01/02 11:52:40;;;;;;;6.45;5.40;;;4.00;86.40;;;;;;6374704;27;20065;-78
2021/01/02 11:55:41;;;;;;;6.93;6.18;;;3.60;85.60;;;;;;6374555;27;20032;-78
2021/01/02 11:58:41;;;;;;;6.47;4.82;;;2.50;94.90;;;;;;6374288;27;20069;-77
2021/01/02 12:01:47;;;;;;;5.32;4.40;;;2.50;95.20;;;;;;6374178;27;20043;-79
2021/01/02 12:04:47;;;;;;;5.80;5.13;;;2.60;84.50;;;;;;6339545;27;20072;-78
2021/01/02 12:07:49;;;;;;;7.32;6.03;;;3.30;85.20;;;;;;6356273;27;20027;-79
2021/01/02 12:10:49;;;;;;;8.77;7.07;;;3.00;84.10;;;;;;6356256;27;20487;-78
2021/01/02 12:13:50;;;;;;;6.10;5.00;;;3.20;84.00;;;;;;6374316;27;20031;-78
2021/01/02 12:16:51;;;;;;;5.28;4.22;;;2.60;94.40;;;;;;6373891;27;20394;-77
2021/01/02 12:19:53;;;;;;;7.00;6.20;;;3.40;82.20;;;;;;6374231;27;20023;-78
2021/01/02 12:22:53;;;;;;;6.38;4.85;;;3.20;83.70;;;;;;6373941;27;20027;-79
2021/01/02 12:25:54;;;;;;;5.57;4.38;;;2.90;83.20;;;;;;6373980;27;20031;-78
2021/01/02 12:28:55;;;;;;;7.22;5.40;;;2.80;94.60;;;;;;6374407;27;20011;-79
2021/01/02 12:31:57;;;;;;;14.98;7.72;;;3.20;83.70;;;;;;6355678;27;20054;-78
2021/01/02 12:34:57;;;;;;;11.68;7.57;;;3.00;84.00;;;;;;6373963;27;20102;-78
2021/01/02 12:37:58;;;;;;;11.23;7.07;;;3.00;84.70;;;;;;6373812;27;20039;-77
2021/01/02 12:40:58;;;;;;;8.60;5.90;;;3.10;84.50;;;;;;6373751;27;20498;-79
2021/01/02 12:43:59;;;;;;;6.65;5.22;;;3.40;82.80;;;;;;6373420;27;20330;-79
2021/01/02 12:47:13;;;;;;;8.02;4.82;;;2.80;82.30;;;;;;6373689;27;20072;-78
2021/01/02 12:50:15;;;;;;;5.57;4.85;;;2.50;80.00;;;;;;6373618;27;20015;-79
2021/01/02 12:53:15;;;;;;;18.45;9.73;;;2.20;83.10;;;;;;6373571;27;20064;-77
2021/01/02 12:56:16;;;;;;;13.38;8.40;;;3.60;85.30;;;;;;6373075;27;20035;-78
2021/01/02 12:59:18;;;;;;;12.45;9.18;;;3.30;83.50;;;;;;6372682;27;20019;-78
2021/01/02 13:02:19;;;;;;;13.30;9.15;;;2.60;84.70;;;;;;6373025;27;20074;-77
2021/01/02 13:05:20;;;;;;;6.88;5.93;;;3.80;84.90;;;;;;6373227;27;20185;-78
2021/01/02 13:08:21;;;;;;;8.98;6.70;;;2.30;84.40;;;;;;6372999;27;20366;-78
2021/01/02 13:11:21;;;;;;;6.95;5.85;;;2.90;85.40;;;;;;6372964;27;20019;-78
2021/01/02 13:14:23;;;;;;;10.57;5.90;;;2.50;84.00;;;;;;6373143;28;20038;-78
2021/01/02 13:17:24;;;;;;;8.82;6.47;;;3.90;84.10;;;;;;6372729;28;20465;-78
2021/01/02 13:20:25;;;;;;;7.55;5.53;;;2.90;84.20;;;;;;6373230;27;20027;-79
2021/01/02 13:23:26;;;;;;;8.00;5.68;;;2.90;84.00;;;;;;6372667;28;20030;-78
2021/01/02 13:26:26;;;;;;;8.20;6.03;;;3.00;84.40;;;;;;6372889;28;20027;-79
2021/01/02 13:29:29;;;;;;;8.93;6.78;;;3.20;85.20;;;;;;6372982;28;20114;-79
2021/01/02 13:32:30;;;;;;;6.82;5.10;;;2.90;85.60;;;;;;6372576;27;20059;-77
2021/01/02 13:35:30;;;;;;;6.13;4.88;;;2.50;83.70;;;;;;6372574;28;20024;-78
2021/01/02 13:38:31;;;;;;;6.10;4.82;;;3.40;84.00;;;;;;6372564;28;20489;-78
2021/01/02 13:41:31;;;;;;;9.75;5.38;;;2.50;84.40;;;;;;6372682;28;20023;-78
2021/01/02 13:44:34;;;;;;;7.13;5.50;;;3.20;84.70;;;;;;6372635;27;20023;-78
2021/01/02 13:47:34;;;;;;;7.68;5.53;;;3.00;85.70;;;;;;6372876;28;20114;-78
2021/01/02 13:50:35;;;;;;;5.75;4.95;;;;;;;;;;6372725;28;20037;-78
2021/01/02 13:53:36;;;;;;;6.30;5.70;;;2.10;79.70;;;;;;6372732;28;20011;-78
2021/01/02 13:56:37;;;;;;;7.47;5.88;;;3.20;85.10;;;;;;6372971;28;20019;-78
2021/01/02 13:59:37;;;;;;;8.00;6.10;;;3.40;84.30;;;;;;6372490;28;20091;-78
2021/01/02 14:02:38;;;;;;;8.52;5.80;;;2.10;94.90;;;;;;6373008;28;20642;-78
2021/01/02 14:05:39;;;;;;;9.93;6.18;;;2.30;94.70;;;;;;6372572;28;20429;-77
2021/01/02 14:08:42;;;;;;;6.50;4.93;;;2.10;94.30;;;;;;6372608;28;20096;-78
2021/01/02 14:11:42;;;;;;;6.45;5.15;;;2.00;94.50;;;;;;6374135;27;20449;-78
2021/01/02 14:14:43;;;;;;;5.60;4.65;;;2.10;93.70;;;;;;6358888;27;20030;-77
2021/01/02 14:17:44;;;;;;;4.78;4.28;;;2.10;94.30;;;;;;6376751;27;20038;-78
2021/01/02 14:20:45;;;;;;;5.72;4.82;;;2.00;94.50;;;;;;6377285;27;20353;-78
2021/01/02 14:23:46;;;;;;;7.22;5.10;;;;;;;;;;6377061;27;20019;-77
2021/01/02 14:26:49;;;;;;;6.38;5.18;;;;;;;;;;6377080;27;20475;-78
2021/01/02 14:29:50;;;;;;;7.40;6.03;;;;;;;;;;6376755;27;20098;-77
2021/01/02 14:32:51;;;;;;;7.10;5.22;;;;;;;;;;6376388;27;20443;-77
2021/01/02 14:35:52;;;;;;;6.90;5.40;;;;;;;;;;6376437;27;20019;-79
2021/01/02 14:38:53;;;;;;;13.02;7.60;;;2.00;97.60;;;;;;6376515;27;20054;-78
2021/01/02 14:41:57;;;;;;;6.55;5.38;;;2.10;99.90;;;;;;6376391;27;20016;-78
2021/01/02 14:44:59;;;;;;;5.75;4.80;;;;;;;;;;6376530;27;20025;-78
2021/01/02 14:48:00;;;;;;;7.57;6.00;;;;;;;;;;6376378;27;20023;-78
2021/01/02 14:51:00;;;;;;;7.80;5.90;;;2.20;92.00;;;;;;6376450;27;20480;-78
2021/01/02 14:54:01;;;;;;;8.30;5.95;;;2.50;84.20;;;;;;6376085;27;20023;-78
2021/01/02 14:57:03;;;;;;;6.78;5.47;;;2.30;83.80;;;;;;6375857;27;20027;-78
2021/01/02 15:00:06;;;;;;;8.15;5.75;;;2.20;83.90;;;;;;6375707;27;20102;-80
2021/01/02 15:03:07;;;;;;;7.07;5.43;;;2.20;82.90;;;;;;6376081;27;20023;-77
2021/01/02 15:06:12;;;;;;;7.75;6.00;;;3.40;84.90;;;;;;6375823;27;20050;-78
2021/01/02 15:09:12;;;;;;;8.45;6.07;;;3.50;85.90;;;;;;6375816;27;20031;-77
2021/01/02 15:12:13;;;;;;;7.25;5.53;;;3.30;85.20;;;;;;6375457;27;20026;-79
2021/01/02 15:15:14;;;;;;;8.50;6.28;;;3.30;84.70;;;;;;6375505;27;20019;-79
2021/01/02 15:18:15;;;;;;;7.53;5.63;;;2.30;82.80;;;;;;6375178;27;20058;-79
2021/01/02 15:21:15;;;;;;;6.55;5.68;;;3.10;83.70;;;;;;6375565;27;20027;-78
2021/01/02 15:24:16;;;;;;;8.50;5.78;;;2.70;84.40;;;;;;6374993;27;20461;-80
2021/01/02 15:27:17;;;;;;;9.93;7.60;;;3.10;85.10;;;;;;6375161;27;20055;-78
2021/01/02 15:30:18;;;;;;;7.85;5.85;;;2.60;85.00;;;;;;6375190;27;20025;-78
2021/01/02 15:33:21;;;;;;;7.35;5.63;;;2.20;83.30;;;;;;6356702;27;20472;-78
2021/01/02 15:36:27;;;;;;;33.95;17.00;;;1.70;80.90;;;;;;6375187;27;20035;-78
2021/01/02 15:39:33;;;;;;;12.70;8.02;;;2.10;85.20;;;;;;6375360;27;20028;-78
2021/01/02 15:42:33;;;;;;;10.15;7.72;;;2.40;85.30;;;;;;6375411;27;20532;-79
2021/01/02 15:45:34;;;;;;;9.75;7.07;;;3.60;85.40;;;;;;6356782;27;20028;-78
2021/01/02 15:48:35;;;;;;;11.20;8.63;;;2.20;84.40;;;;;;6374981;27;20015;-78
2021/01/02 15:51:40;;;;;;;7.97;6.10;;;2.20;85.20;;;;;;6356485;27;20093;-78
2021/01/02 15:54:41;;;;;;;11.57;7.82;;;2.60;85.20;;;;;;6374668;27;20363;-79
2021/01/02 15:57:42;;;;;;;8.30;6.32;;;2.10;85.40;;;;;;6374518;27;20023;-78
2021/01/02 16:04:45;;;;;;;14.60;11.17;;;2.00;82.30;;;;;;6373391;27;20035;-78
2021/01/02 16:07:46;;;;;;;7.43;5.90;;;2.70;86.00;;;;;;6374505;27;20149;-78